Latest Weather Observations for Perth

IDW60801

Issued at 6:35 pm WST Tuesday 21 October 2014 (issued every 30 minutes, with the page automatically refreshed every 10 minutes)

About weather observations | Map of weather stations | Latest weather observations for WA | Other Formats
Station Details ID: 009225 Name: PERTH METRO Lat: -31.92 Lon: 115.87 Height: 24.9 m
Data from the previous 72 hours. | See also: Recent months at Perth
Date/Time
WST
Temp
°C
App
Temp
°C
Dew
Point
Rel
Hum
%
Delta-T
°C
Wind Press
QNH
hPa
Press
MSL
hPa
Rain
since 9 am
mm
Dir
 
Spd
km/h
Gust
km/h
Spd
kts
Gust
kts
21/06:30pm 19.9 19.5 12.9 64 4.0 SSW 7 11 4 6 1019.2 1019.1 0.0
21/06:00pm 20.6 19.8 12.8 61 4.4 SSW 9 15 5 8 1019.0 1018.9 0.0
21/05:30pm 21.0 20.0 12.4 58 4.9 SSW 9 19 5 10 1018.9 1018.8 0.0
21/05:00pm 21.5 19.6 11.8 54 5.4 SSW 13 24 7 13 1019.0 1018.9 0.0
21/04:30pm 22.2 20.3 11.9 52 5.8 SSW 13 24 7 13 1019.0 1018.9 0.0
21/04:00pm 22.4 20.3 12.4 53 5.7 SW 15 26 8 14 1019.0 1018.9 0.0
21/03:30pm 23.8 21.8 12.8 50 6.3 SW 15 24 8 13 1019.0 1018.9 0.0
21/03:00pm 23.7 21.6 12.4 49 6.4 SW 15 26 8 14 1019.3 1019.2 0.0
21/02:30pm 23.7 21.5 12.0 48 6.6 SW 15 24 8 13 1019.5 1019.4 0.0
21/02:00pm 23.4 20.8 12.1 49 6.4 S 17 22 9 12 1019.9 1019.8 0.0
21/01:30pm 24.2 22.8 12.2 47 6.8 SSW 11 19 6 10 1020.2 1020.1 0.0
21/01:00pm 23.5 22.5 10.9 45 7.0 S 7 13 4 7 1020.7 1020.6 0.0
21/12:30pm 22.8 21.0 9.6 43 7.1 ENE 9 15 5 8 1020.9 1020.8 0.0
21/12:00pm 23.1 22.3 11.8 49 6.4 SSW 7 13 4 7 1020.9 1020.8 0.0
21/11:30am 21.1 20.3 10.9 52 5.6 S 6 13 3 7 1021.2 1021.1 0.0
21/11:00am 20.9 19.9 11.0 53 5.4 ENE 7 15 4 8 1021.6 1021.5 0.0
21/10:30am 20.1 18.8 9.9 52 5.4 E 7 13 4 7 1022.1 1022.0 0.0
21/10:00am 19.7 18.3 10.9 57 4.8 ESE 9 20 5 11 1022.4 1022.3 0.0
21/09:30am 18.9 17.7 11.5 62 4.1 SSE 9 15 5 8 1022.6 1022.5 0.0
21/09:00am 18.5 17.4 11.8 65 3.7 ENE 9 15 5 8 1022.7 1022.6 0.0
21/08:30am 17.3 16.0 11.3 68 3.3 E 9 17 5 9 1022.6 1022.5 0.0
21/08:00am 16.3 15.1 11.7 74 2.5 E 9 19 5 10 1022.5 1022.4 0.0
21/07:30am 14.7 14.5 11.7 82 1.6 NE 4 7 2 4 1022.3 1022.2 0.0
21/07:00am 12.4 11.6 11.0 91 0.7 SSE 6 7 3 4 1022.1 1022.0 0.0
21/06:30am 10.1 10.1 9.8 98 0.2 CALM 0 0 0 0 1022.0 1021.9 0.0
21/06:00am 8.6 8.2 8.2 97 0.2 CALM 0 0 0 0 1021.7 1021.6 0.0
21/05:30am 8.4 7.9 8.0 97 0.2 CALM 0 0 0 0 1021.5 1021.4 0.0
21/05:00am 8.8 8.4 8.4 97 0.2 CALM 0 0 0 0 1021.4 1021.3 0.0
21/04:30am 8.8 8.4 8.2 96 0.3 CALM 0 0 0 0 1020.9 1020.8 0.0
21/04:00am 9.2 8.9 8.6 96 0.3 CALM 0 0 0 0 1020.6 1020.5 0.0
21/03:30am 9.3 9.0 8.7 96 0.3 CALM 0 0 0 0 1020.4 1020.3 0.0
21/03:00am 9.5 9.3 8.9 96 0.3 CALM 0 0 0 0 1020.3 1020.2 0.0
21/02:30am 9.8 9.6 9.2 96 0.3 CALM 0 0 0 0 1020.3 1020.2 0.0
21/02:00am 10.0 9.8 9.2 95 0.4 CALM 0 0 0 0 1020.3 1020.2 0.0
21/01:30am 10.0 9.8 9.1 94 0.4 S 0 0 0 0 1020.3 1020.2 0.0
21/01:00am 10.6 10.6 9.7 94 0.5 CALM 0 0 0 0 1020.2 1020.1 0.0
21/12:30am 11.0 11.0 9.9 93 0.6 CALM 0 0 0 0 1020.3 1020.2 0.0
21/12:00am 11.2 11.2 9.8 91 0.7 S 0 0 0 0 1020.6 1020.5 0.0
 
Date/Time
WST
Temp
°C
App
Temp
°C
Dew
Point
Rel
Hum
%
Delta-T
°C
Wind Press
QNH
hPa
Press
MSL
hPa
Rain
since 9 am
mm
Dir
 
Spd
km/h
Gust
km/h
Spd
kts
Gust
kts
20/11:30pm 11.8 11.9 10.0 89 0.9 CALM 0 0 0 0 1020.6 1020.5 0.0
20/11:00pm 12.7 12.8 10.2 85 1.3 CALM 0 0 0 0 1020.7 1020.6 0.0
20/10:30pm 13.8 13.6 10.4 80 1.8 S 2 7 1 4 1020.7 1020.6 0.0
20/10:00pm 15.0 14.0 10.2 73 2.5 S 6 9 3 5 1020.8 1020.7 0.0
20/09:30pm 15.5 14.9 10.3 71 2.7 S 4 9 2 5 1020.9 1020.8 0.0
20/09:00pm 16.0 14.5 10.5 70 2.9 S 9 13 5 7 1020.9 1020.8 0.0
20/08:30pm 16.5 14.7 10.8 69 3.0 S 11 20 6 11 1020.8 1020.7 0.0
20/08:00pm 16.4 15.0 10.9 70 2.9 SSW 9 15 5 8 1020.7 1020.6 0.0
20/07:30pm 16.7 15.0 11.2 70 3.0 SW 11 19 6 10 1020.5 1020.4 0.0
20/07:00pm 16.9 15.7 11.6 71 2.9 SSW 9 17 5 9 1020.4 1020.3 0.0
20/06:30pm 17.3 15.5 12.0 71 2.9 SW 13 20 7 11 1020.0 1019.9 0.0
20/06:00pm 17.6 15.4 12.1 70 3.0 SSW 15 28 8 15 1019.5 1019.4 0.0
20/05:30pm 18.3 16.1 12.1 67 3.4 SSW 15 24 8 13 1019.4 1019.3 0.0
20/05:00pm 19.2 16.5 11.7 62 4.1 SW 17 26 9 14 1019.3 1019.2 0.0
20/04:30pm 19.6 16.9 11.6 60 4.4 SW 17 28 9 15 1019.3 1019.2 0.0
20/04:00pm 20.0 17.2 11.5 58 4.7 WSW 17 28 9 15 1018.8 1018.7 0.0
20/03:30pm 19.9 17.4 12.4 62 4.2 WSW 17 26 9 14 1018.7 1018.6 0.0
20/03:00pm 19.0 15.9 11.6 62 4.1 WSW 19 30 10 16 1018.7 1018.6 0.0
20/02:30pm 20.4 17.6 11.3 56 5.0 WSW 17 28 9 15 1018.5 1018.4 0.0
20/02:00pm 19.8 17.1 11.6 59 4.5 WSW 17 30 9 16 1018.5 1018.4 0.0
20/01:30pm 20.2 17.6 10.6 54 5.2 SW 15 30 8 16 1018.3 1018.2 0.0
20/01:00pm 19.7 16.9 11.2 58 4.6 WSW 17 32 9 17 1018.5 1018.4 0.0
20/12:30pm 19.7 17.6 11.2 58 4.7 SW 13 26 7 14 1018.3 1018.2 0.0
20/12:00pm 20.1 17.4 11.6 58 4.7 WSW 17 32 9 17 1018.0 1017.9 0.0
20/11:30am 19.9 17.6 11.9 60 4.4 SW 15 24 8 13 1018.1 1018.0 0.0
20/11:00am 19.3 17.2 11.3 60 4.4 WSW 13 24 7 13 1018.1 1018.0 0.0
20/10:30am 18.5 16.1 11.3 63 3.9 SW 15 24 8 13 1018.2 1018.1 0.0
20/10:00am 18.5 16.6 11.8 65 3.7 SW 13 24 7 13 1018.2 1018.1 0.0
20/09:30am 17.5 15.0 11.1 66 3.5 WSW 15 26 8 14 1018.2 1018.1 0.0
20/09:00am 18.4 16.8 11.5 64 3.8 SSW 11 24 6 13 1018.2 1018.1 3.0
20/08:30am 17.6 16.5 12.1 70 3.0 SSW 9 13 5 7 1018.1 1018.0 3.0
20/08:00am 17.0 16.1 11.5 70 3.0 SSE 7 11 4 6 1018.1 1018.0 3.0
20/07:30am 15.4 14.5 10.8 74 2.4 SE 6 9 3 5 1018.0 1017.9 3.0
20/07:00am 13.7 13.5 10.3 80 1.8 SSE 2 9 1 5 1017.6 1017.5 3.0
20/06:30am 11.6 11.3 10.2 91 0.7 SSE 2 6 1 3 1017.3 1017.2 3.0
20/06:00am 10.4 10.2 9.2 92 0.6 CALM 0 0 0 0 1016.9 1016.8 3.0
20/05:30am 10.5 10.2 8.8 89 0.8 CALM 0 0 0 0 1016.6 1016.5 3.0
20/05:00am 11.7 11.1 9.1 84 1.3 SSE 2 6 1 3 1016.2 1016.1 3.0
20/04:30am 12.3 10.5 9.3 82 1.5 S 9 13 5 7 1016.1 1016.0 3.0
20/04:00am 12.4 10.5 9.2 81 1.6 S 9 13 5 7 1015.9 1015.8 3.0
20/03:30am 12.2 10.4 9.6 84 1.3 S 9 13 5 7 1015.8 1015.7 3.0
20/03:00am 12.6 11.2 9.4 81 1.6 S 7 11 4 6 1015.8 1015.7 3.0
20/02:30am 12.1 10.8 9.3 83 1.4 S 6 9 3 5 1015.6 1015.5 3.0
20/02:00am 12.5 11.3 9.7 83 1.4 S 6 11 3 6 1015.6 1015.5 3.0
20/01:30am 12.5 10.8 9.7 83 1.4 S 9 15 5 8 1015.6 1015.5 3.0
20/01:00am 12.6 10.4 9.4 81 1.6 S 11 17 6 9 1015.9 1015.8 3.0
20/12:30am 13.0 10.8 9.4 79 1.8 S 11 17 6 9 1016.2 1016.1 3.0
20/12:00am 13.0 11.1 9.1 77 2.0 S 9 15 5 8 1016.4 1016.3 3.0
 
Date/Time
WST
Temp
°C
App
Temp
°C
Dew
Point
Rel
Hum
%
Delta-T
°C
Wind Press
QNH
hPa
Press
MSL
hPa
Rain
since 9 am
mm
Dir
 
Spd
km/h
Gust
km/h
Spd
kts
Gust
kts
19/11:30pm 13.3 11.1 9.2 76 2.1 S 11 19 6 10 1016.4 1016.3 3.0
19/11:00pm 13.6 11.8 9.6 77 2.0 S 9 19 5 10 1016.5 1016.4 3.0
19/10:30pm 13.2 11.4 9.6 79 1.8 SSW 9 17 5 9 1016.4 1016.3 3.0
19/10:00pm 13.5 11.8 9.7 78 1.9 S 9 17 5 9 1016.5 1016.4 3.0
19/09:30pm 13.8 12.0 9.6 76 2.2 S 9 15 5 8 1016.6 1016.5 3.0
19/09:00pm 13.9 11.8 9.7 76 2.2 S 11 19 6 10 1016.6 1016.5 3.0
19/08:30pm 14.3 11.8 9.7 74 2.4 S 13 19 7 10 1016.4 1016.3 3.0
19/08:00pm 14.9 13.2 9.9 72 2.6 SSE 9 19 5 10 1016.1 1016.0 3.0
19/07:30pm 15.4 13.0 10.2 71 2.7 S 13 20 7 11 1015.8 1015.7 3.0
19/07:00pm 15.5 13.6 10.5 72 2.6 SSE 11 19 6 10 1015.3 1015.2 3.0
19/06:30pm 15.7 13.3 10.0 69 3.0 SSE 13 24 7 13 1014.5 1014.4 3.0
19/06:00pm 16.2 13.5 10.5 69 3.0 SSE 15 20 8 11 1014.2 1014.1 3.0
19/05:30pm 16.8 13.7 10.4 66 3.4 SSE 17 26 9 14 1014.1 1014.0 3.0
19/05:00pm 17.7 14.4 11.0 65 3.6 SSE 19 28 10 15 1013.9 1013.8 3.0
19/04:30pm 17.9 14.5 11.2 65 3.6 SSE 20 33 11 18 1013.5 1013.4 3.0
19/04:00pm 18.7 15.4 11.5 63 3.9 SSE 20 30 11 16 1013.4 1013.3 3.0
19/03:30pm 17.8 14.2 11.8 68 3.3 SSE 22 32 12 17 1013.2 1013.1 3.0
19/03:00pm 17.7 14.4 11.5 67 3.4 S 20 30 11 16 1013.1 1013.0 3.0
19/02:30pm 16.9 13.9 12.6 76 2.4 S 20 28 11 15 1013.4 1013.3 3.0
19/02:00pm 17.8 15.4 13.7 77 2.3 SSE 19 30 10 16 1013.5 1013.4 3.0
19/01:30pm 16.6 15.1 14.1 85 1.4 S 15 24 8 13 1014.1 1014.0 3.0
19/01:00pm 15.0 12.4 13.2 89 1.0 SSE 19 24 10 13 1014.5 1014.4 3.0
19/12:30pm 14.9 13.2 13.6 92 0.7 SSE 15 24 8 13 1014.7 1014.6 2.8
19/12:00pm 14.5 12.2 13.0 91 0.8 SSE 17 24 9 13 1014.9 1014.8 2.2
19/11:30am 14.7 13.1 12.9 89 1.0 SSE 13 20 7 11 1015.1 1015.0 2.2
19/11:00am 14.8 13.6 12.8 88 1.1 SSE 11 20 6 11 1015.6 1015.5 2.0
19/10:30am 14.5 12.8 12.4 87 1.1 SE 13 20 7 11 1015.9 1015.8 2.0
19/10:00am 14.4 14.2 13.0 91 0.8 SE 6 9 3 5 1015.9 1015.8 1.6
19/09:30am 14.0 13.4 12.4 90 0.9 SSE 7 11 4 6 1015.8 1015.7 0.6
19/09:00am 13.9 12.8 11.8 87 1.1 SE 9 15 5 8 1015.7 1015.6 12.0
19/08:30am 14.6 12.8 10.8 78 2.0 SE 11 20 6 11 1015.4 1015.3 10.4
19/08:00am 14.5 12.3 10.9 79 1.9 SSE 13 22 7 12 1015.3 1015.2 10.4
19/07:30am 14.9 12.3 10.7 76 2.2 SE 15 24 8 13 1015.1 1015.0 10.4
19/07:00am 14.8 12.5 10.6 76 2.2 SE 13 22 7 12 1015.0 1014.9 10.4
19/06:30am 14.8 12.2 10.6 76 2.2 SE 15 24 8 13 1015.1 1015.0 10.4
19/06:00am 14.8 12.9 10.4 75 2.3 SE 11 24 6 13 1014.9 1014.8 10.4
19/05:30am 14.9 12.6 10.5 75 2.3 SE 13 20 7 11 1014.5 1014.4 10.4
19/05:00am 15.0 12.7 10.6 75 2.3 SE 13 30 7 16 1014.3 1014.2 10.4
19/04:30am 15.1 12.4 10.3 73 2.5 SE 15 26 8 14 1014.3 1014.2 10.4
19/04:00am 15.1 12.4 10.5 74 2.4 ESE 15 30 8 16 1014.0 1013.9 10.4
19/03:30am 15.1 13.1 10.3 73 2.5 SE 11 19 6 10 1014.3 1014.2 10.4
19/03:00am 15.1 13.3 10.7 75 2.3 SE 11 19 6 10 1014.2 1014.1 10.4
19/02:30am 15.0 12.7 10.6 75 2.3 SE 13 24 7 13 1014.2 1014.1 10.4
19/02:00am 14.9 12.7 10.9 77 2.1 SE 13 30 7 16 1014.2 1014.1 10.4
19/01:30am 14.8 13.1 11.2 79 1.9 ESE 11 22 6 12 1014.4 1014.3 10.4
19/01:00am 14.8 13.1 11.2 79 1.9 E 11 30 6 16 1014.6 1014.5 10.4
19/12:30am 14.7 13.4 11.1 79 1.9 E 9 24 5 13 1015.0 1014.9 10.4
19/12:00am 14.9 12.5 11.3 79 1.9 ESE 15 32 8 17 1015.2 1015.1 10.4
 
Date/Time
WST
Temp
°C
App
Temp
°C
Dew
Point
Rel
Hum
%
Delta-T
°C
Wind Press
QNH
hPa
Press
MSL
hPa
Rain
since 9 am
mm
Dir
 
Spd
km/h
Gust
km/h
Spd
kts
Gust
kts
18/11:30pm 14.9 12.0 10.9 77 2.1 ESE 17 33 9 18 1015.1 1015.0 10.4
18/11:00pm 14.6 12.6 11.4 81 1.7 E 13 28 7 15 1015.2 1015.1 10.4
18/10:30pm 14.6 12.6 11.6 82 1.6 ESE 13 26 7 14 1015.5 1015.4 10.4
18/10:00pm 14.4 12.7 12.3 87 1.1 SE 13 28 7 15 1015.4 1015.3 10.4
18/09:30pm 14.5 12.4 12.5 88 1.1 SE 15 26 8 14 1015.3 1015.2 10.4
18/09:00pm 14.7 11.7 12.7 88 1.1 ESE 20 37 11 20 1015.1 1015.0 8.0
18/08:30pm 15.4 14.0 13.4 88 1.1 SSE 13 17 7 9 1015.4 1015.3 5.8
18/08:00pm 15.8 14.7 13.1 84 1.5 SE 11 22 6 12 1014.8 1014.7 3.4
18/07:30pm 16.7 15.2 13.0 79 2.1 SSE 13 24 7 13 1014.1 1014.0 1.8
18/07:00pm 17.8 15.6 12.0 69 3.2 SE 15 28 8 15 1013.4 1013.3 1.4

Other Formats:

Comma delimited format used in spreadsheet applications
http://www.bom.gov.au/fwo/IDW60801/IDW60801.94608.axf

JavaScript Object Notation format (JSON) in row-major order
http://www.bom.gov.au/fwo/IDW60801/IDW60801.94608.json